AAL778 KASE-KSAN
Flight info
| Callsign | AAL778 |
|---|---|
| Flight time | 1h 31m |
| Altitude | 28000 |
| Route | LINDZ JNC PGS EED LVELL LUCKI1 |
| Aircraft | RJ1H/M-SDFGIRWY/LB1 |
Departure
| Time | 2026-04-12 04:31 |
|---|---|
| Airport | Aspen-Pitkin County Airport (Sardy Field) (KASE) |
Arrival
| Time | 2026-04-12 06:02 |
|---|---|
| Airport | San Diego International Airport (KSAN) |
| Time | Latitude | Longitude | Altitude | Speed | Heading |
|---|---|---|---|---|---|
| 2026-04-12 04:09 | 39.21974 | -106.86543 | 7787 ft | 0 kts | 102° |
| 2026-04-12 04:21 | 39.21976 | -106.86554 | 7787 ft | 4 kts | 102° |
| 2026-04-12 04:21 | 39.21982 | -106.86588 | 7778 ft | 4 kts | 101° |
| 2026-04-12 04:21 | 39.21981 | -106.86606 | 7780 ft | 4 kts | 161° |
| 2026-04-12 04:22 | 39.22002 | -106.86616 | 7780 ft | 2 kts | 159° |
| 2026-04-12 04:22 | 39.22004 | -106.86617 | 7775 ft | 0 kts | 159° |
| 2026-04-12 04:25 | 39.21997 | -106.86613 | 7775 ft | 2 kts | 159° |
| 2026-04-12 04:25 | 39.21970 | -106.86600 | 7782 ft | 6 kts | 159° |
| 2026-04-12 04:25 | 39.21919 | -106.86575 | 7785 ft | 10 kts | 159° |
| 2026-04-12 04:26 | 39.21837 | -106.86536 | 7797 ft | 15 kts | 159° |
| 2026-04-12 04:26 | 39.21717 | -106.86480 | 7806 ft | 20 kts | 160° |
| 2026-04-12 04:26 | 39.21577 | -106.86413 | 7817 ft | 24 kts | 160° |
| 2026-04-12 04:26 | 39.21407 | -106.86332 | 7826 ft | 27 kts | 160° |
| 2026-04-12 04:27 | 39.21268 | -106.86265 | 7838 ft | 10 kts | 159° |
| 2026-04-12 04:27 | 39.21249 | -106.86257 | 7834 ft | 0 kts | 164° |
| 2026-04-12 04:27 | 39.21233 | -106.86252 | 7836 ft | 6 kts | 170° |
| 2026-04-12 04:27 | 39.21220 | -106.86251 | 7837 ft | 0 kts | 186° |
| 2026-04-12 04:28 | 39.21207 | -106.86255 | 7838 ft | 5 kts | 199° |
| 2026-04-12 04:28 | 39.21174 | -106.86324 | 7833 ft | 10 kts | 275° |
| 2026-04-12 04:29 | 39.21217 | -106.86360 | 7834 ft | 3 kts | 339° |
| 2026-04-12 04:29 | 39.21279 | -106.86390 | 7831 ft | 32 kts | 340° |
| 2026-04-12 04:29 | 39.21667 | -106.86576 | 7809 ft | 86 kts | 340° |
| 2026-04-12 04:29 | 39.22389 | -106.86919 | 7748 ft | 133 kts | 339° |
| 2026-04-12 04:30 | 39.23380 | -106.87399 | 7711 ft | 166 kts | 338° |
| 2026-04-12 04:30 | 39.24476 | -106.87891 | 7787 ft | 170 kts | 340° |
| 2026-04-12 04:30 | 39.25705 | -106.88152 | 7883 ft | 180 kts | 347° |
| 2026-04-12 04:30 | 39.26919 | -106.88375 | 8317 ft | 173 kts | 351° |
| 2026-04-12 04:31 | 39.28094 | -106.88576 | 8734 ft | 168 kts | 353° |
| 2026-04-12 04:31 | 39.29245 | -106.88731 | 9047 ft | 167 kts | 353° |
| 2026-04-12 04:31 | 39.30417 | -106.88877 | 9296 ft | 173 kts | 352° |
| 2026-04-12 04:31 | 39.31602 | -106.89014 | 9630 ft | 168 kts | 351° |
| 2026-04-12 04:32 | 39.32774 | -106.89011 | 9811 ft | 172 kts | 346° |
| 2026-04-12 04:32 | 39.33917 | -106.89383 | 10127 ft | 169 kts | 342° |
| 2026-04-12 04:32 | 39.34944 | -106.89984 | 10370 ft | 160 kts | 298° |
| 2026-04-12 04:32 | 39.35268 | -106.91297 | 10605 ft | 159 kts | 272° |
| 2026-04-12 04:33 | 39.35413 | -106.92768 | 10784 ft | 171 kts | 273° |
| 2026-04-12 04:33 | 39.35548 | -106.94367 | 10924 ft | 187 kts | 272° |
| 2026-04-12 04:33 | 39.35712 | -106.96098 | 10988 ft | 201 kts | 274° |
| 2026-04-12 04:33 | 39.35927 | -106.97946 | 11081 ft | 214 kts | 275° |
| 2026-04-12 04:34 | 39.36178 | -106.99919 | 11103 ft | 233 kts | 276° |
| 2026-04-12 04:34 | 39.36473 | -107.01983 | 11602 ft | 236 kts | 277° |
| 2026-04-12 04:34 | 39.36800 | -107.04106 | 12020 ft | 249 kts | 277° |
| 2026-04-12 04:34 | 39.37170 | -107.06367 | 12284 ft | 265 kts | 278° |
| 2026-04-12 04:35 | 39.37572 | -107.08763 | 12651 ft | 279 kts | 278° |
| 2026-04-12 04:35 | 39.38001 | -107.11220 | 13143 ft | 281 kts | 278° |
| 2026-04-12 04:35 | 39.38423 | -107.13709 | 13304 ft | 285 kts | 277° |
| 2026-04-12 04:35 | 39.38616 | -107.16213 | 13573 ft | 276 kts | 260° |
| 2026-04-12 04:36 | 39.38279 | -107.18647 | 13811 ft | 275 kts | 256° |
| 2026-04-12 04:36 | 39.37863 | -107.21067 | 14009 ft | 276 kts | 254° |
| 2026-04-12 04:36 | 39.37402 | -107.23442 | 14156 ft | 277 kts | 253° |
| 2026-04-12 04:36 | 39.36919 | -107.25819 | 14313 ft | 278 kts | 253° |
| 2026-04-12 04:37 | 39.36434 | -107.28233 | 14482 ft | 278 kts | 253° |
| 2026-04-12 04:37 | 39.35946 | -107.30653 | 14650 ft | 279 kts | 253° |
| 2026-04-12 04:37 | 39.35459 | -107.33089 | 14829 ft | 280 kts | 254° |
| 2026-04-12 04:37 | 39.34970 | -107.35525 | 15073 ft | 280 kts | 253° |
| 2026-04-12 04:38 | 39.34476 | -107.37964 | 15272 ft | 282 kts | 253° |
| 2026-04-12 04:38 | 39.33994 | -107.40429 | 15475 ft | 284 kts | 254° |
| 2026-04-12 04:38 | 39.33510 | -107.42911 | 15688 ft | 286 kts | 253° |
| 2026-04-12 04:38 | 39.33019 | -107.45402 | 16029 ft | 287 kts | 253° |
| 2026-04-12 04:39 | 39.32526 | -107.47900 | 16372 ft | 288 kts | 253° |
| 2026-04-12 04:39 | 39.32035 | -107.50382 | 16704 ft | 290 kts | 253° |
| 2026-04-12 04:39 | 39.31534 | -107.52908 | 17090 ft | 291 kts | 253° |
| 2026-04-12 04:39 | 39.31026 | -107.55445 | 17447 ft | 293 kts | 253° |
| 2026-04-12 04:40 | 39.30515 | -107.58003 | 17735 ft | 295 kts | 254° |
| 2026-04-12 04:40 | 39.30014 | -107.60580 | 18091 ft | 296 kts | 254° |
| 2026-04-12 04:40 | 39.29507 | -107.63163 | 18385 ft | 297 kts | 254° |
| 2026-04-12 04:40 | 39.28993 | -107.65756 | 18639 ft | 298 kts | 254° |
| 2026-04-12 04:41 | 39.28477 | -107.68386 | 18737 ft | 306 kts | 254° |
| 2026-04-12 04:41 | 39.27950 | -107.71080 | 18754 ft | 314 kts | 254° |
| 2026-04-12 04:41 | 39.27393 | -107.73844 | 18770 ft | 322 kts | 254° |
| 2026-04-12 04:41 | 39.26833 | -107.76672 | 18771 ft | 329 kts | 254° |
| 2026-04-12 04:42 | 39.26256 | -107.79559 | 18782 ft | 336 kts | 254° |
| 2026-04-12 04:42 | 39.25662 | -107.82513 | 18838 ft | 342 kts | 254° |
| 2026-04-12 04:42 | 39.25061 | -107.85478 | 19065 ft | 341 kts | 254° |
| 2026-04-12 04:43 | 39.23872 | -107.91404 | 19524 ft | 341 kts | 254° |
| 2026-04-12 04:43 | 39.23287 | -107.94362 | 19773 ft | 340 kts | 254° |
| 2026-04-12 04:43 | 39.22694 | -107.97313 | 20013 ft | 340 kts | 254° |
| 2026-04-12 04:43 | 39.22100 | -108.00256 | 20249 ft | 339 kts | 254° |
| 2026-04-12 04:44 | 39.21508 | -108.03161 | 20460 ft | 339 kts | 254° |
| 2026-04-12 04:44 | 39.20911 | -108.06107 | 20685 ft | 338 kts | 254° |
| 2026-04-12 04:44 | 39.20316 | -108.09041 | 20917 ft | 338 kts | 254° |
| 2026-04-12 04:44 | 39.19721 | -108.11968 | 21175 ft | 337 kts | 254° |
| 2026-04-12 04:45 | 39.19128 | -108.14892 | 21418 ft | 337 kts | 254° |
| 2026-04-12 04:45 | 39.18538 | -108.17818 | 21635 ft | 337 kts | 254° |
| 2026-04-12 04:45 | 39.17016 | -108.25271 | 22262 ft | 335 kts | 254° |
| 2026-04-12 04:45 | 39.14656 | -108.36867 | 23233 ft | 333 kts | 254° |
| 2026-04-12 04:46 | 39.12334 | -108.48230 | 24203 ft | 330 kts | 254° |
| 2026-04-12 04:46 | 39.09996 | -108.59650 | 25094 ft | 328 kts | 254° |
| 2026-04-12 04:46 | 39.07627 | -108.70959 | 25903 ft | 326 kts | 253° |
| 2026-04-12 04:46 | 39.10212 | -108.81137 | 26430 ft | 360 kts | 332° |
| 2026-04-12 04:47 | 39.19240 | -108.76558 | 27036 ft | 395 kts | 65° |
| 2026-04-12 04:47 | 39.20134 | -108.68645 | 27485 ft | 388 kts | 103° |
| 2026-04-12 04:47 | 39.17615 | -108.62902 | 27762 ft | 365 kts | 149° |
| 2026-04-12 04:47 | 39.12254 | -108.61660 | 27977 ft | 322 kts | 207° |
| 2026-04-12 04:48 | 39.09189 | -108.66852 | 28002 ft | 315 kts | 256° |
| 2026-04-12 04:48 | 39.08297 | -108.72435 | 27956 ft | 322 kts | 257° |
| 2026-04-12 04:48 | 39.06443 | -108.77686 | 27839 ft | 330 kts | 233° |
| 2026-04-12 04:48 | 39.00899 | -108.86821 | 27816 ft | 349 kts | 231° |
| 2026-04-12 04:49 | 38.94378 | -108.96491 | 27816 ft | 366 kts | 230° |
| 2026-04-12 04:49 | 38.87655 | -109.06438 | 27806 ft | 379 kts | 230° |
| 2026-04-12 04:49 | 38.80655 | -109.16725 | 27803 ft | 382 kts | 230° |
| 2026-04-12 04:49 | 38.74176 | -109.27429 | 27799 ft | 380 kts | 237° |
| 2026-04-12 04:50 | 38.68468 | -109.38755 | 27789 ft | 377 kts | 237° |
| 2026-04-12 04:50 | 38.62748 | -109.50191 | 27811 ft | 386 kts | 237° |
| 2026-04-12 04:50 | 38.56864 | -109.61687 | 27794 ft | 387 kts | 237° |
| 2026-04-12 04:50 | 38.50875 | -109.73270 | 27805 ft | 392 kts | 237° |
| 2026-04-12 04:51 | 38.44871 | -109.84886 | 27802 ft | 392 kts | 237° |
| 2026-04-12 04:51 | 38.38773 | -109.96396 | 27792 ft | 392 kts | 236° |
| 2026-04-12 04:51 | 38.32619 | -110.07887 | 27789 ft | 392 kts | 236° |
| 2026-04-12 04:51 | 38.26473 | -110.19370 | 27788 ft | 392 kts | 236° |
| 2026-04-12 04:52 | 38.20253 | -110.30788 | 27790 ft | 392 kts | 235° |
| 2026-04-12 04:52 | 38.13966 | -110.42107 | 27792 ft | 392 kts | 235° |
| 2026-04-12 04:52 | 38.06334 | -110.51988 | 27797 ft | 394 kts | 224° |
| 2026-04-12 04:52 | 37.98099 | -110.62297 | 27795 ft | 394 kts | 226° |
| 2026-04-12 04:53 | 37.82620 | -110.82023 | 27806 ft | 395 kts | 226° |
| 2026-04-12 04:53 | 37.67097 | -111.01595 | 27815 ft | 394 kts | 225° |
| 2026-04-12 04:53 | 37.35763 | -111.40738 | 27797 ft | 397 kts | 225° |
| 2026-04-12 04:54 | 37.23481 | -111.55947 | 27837 ft | 398 kts | 225° |
| 2026-04-12 04:54 | 37.18519 | -111.62063 | 27814 ft | 397 kts | 226° |
| 2026-04-12 04:54 | 37.16549 | -111.64499 | 27813 ft | 398 kts | 225° |
| 2026-04-12 04:54 | 37.14602 | -111.66889 | 27816 ft | 398 kts | 225° |
| 2026-04-12 04:55 | 37.12623 | -111.69316 | 27813 ft | 398 kts | 225° |
| 2026-04-12 04:55 | 37.10642 | -111.71739 | 27811 ft | 398 kts | 225° |
| 2026-04-12 04:55 | 37.08666 | -111.74169 | 27810 ft | 398 kts | 225° |
| 2026-04-12 04:55 | 37.06688 | -111.76592 | 27808 ft | 398 kts | 225° |
| 2026-04-12 04:56 | 37.04710 | -111.79025 | 27806 ft | 398 kts | 225° |
| 2026-04-12 04:56 | 37.02734 | -111.81464 | 27831 ft | 399 kts | 225° |
| 2026-04-12 04:56 | 37.00761 | -111.83900 | 27832 ft | 398 kts | 225° |
| 2026-04-12 04:56 | 36.98789 | -111.86337 | 27833 ft | 398 kts | 225° |
| 2026-04-12 04:57 | 36.96822 | -111.88774 | 27829 ft | 398 kts | 225° |
| 2026-04-12 04:57 | 36.94905 | -111.91261 | 27832 ft | 397 kts | 231° |
| 2026-04-12 04:57 | 36.93307 | -111.94057 | 27854 ft | 397 kts | 237° |
| 2026-04-12 04:57 | 36.91762 | -111.96921 | 27854 ft | 397 kts | 233° |
| 2026-04-12 04:58 | 36.90047 | -111.99635 | 27854 ft | 398 kts | 229° |
| 2026-04-12 04:58 | 36.88191 | -112.02198 | 27853 ft | 398 kts | 227° |
| 2026-04-12 04:58 | 36.86247 | -112.04672 | 27855 ft | 398 kts | 225° |
| 2026-04-12 04:58 | 36.84273 | -112.07101 | 27874 ft | 398 kts | 225° |
| 2026-04-12 04:59 | 36.82289 | -112.09509 | 27874 ft | 398 kts | 224° |
| 2026-04-12 04:59 | 36.80325 | -112.11886 | 27878 ft | 398 kts | 225° |
| 2026-04-12 04:59 | 36.78351 | -112.14305 | 27882 ft | 398 kts | 225° |
| 2026-04-12 04:59 | 36.76389 | -112.16735 | 27876 ft | 397 kts | 225° |
| 2026-04-12 05:00 | 36.74422 | -112.19155 | 27860 ft | 398 kts | 224° |
| 2026-04-12 05:00 | 36.72446 | -112.21570 | 27874 ft | 399 kts | 225° |
| 2026-04-12 05:00 | 36.70477 | -112.24010 | 27882 ft | 400 kts | 225° |
| 2026-04-12 05:00 | 36.68496 | -112.26452 | 27895 ft | 401 kts | 225° |
| 2026-04-12 05:01 | 36.66509 | -112.28885 | 27893 ft | 401 kts | 225° |
| 2026-04-12 05:01 | 36.64529 | -112.31334 | 27893 ft | 401 kts | 225° |
| 2026-04-12 05:01 | 36.62531 | -112.33768 | 27890 ft | 401 kts | 224° |
| 2026-04-12 05:01 | 36.60548 | -112.36206 | 27894 ft | 401 kts | 225° |
| 2026-04-12 05:02 | 36.58561 | -112.38641 | 27890 ft | 401 kts | 225° |
| 2026-04-12 05:02 | 36.56567 | -112.41074 | 27899 ft | 401 kts | 224° |
| 2026-04-12 05:02 | 36.54578 | -112.43516 | 27898 ft | 401 kts | 225° |
| 2026-04-12 05:02 | 36.52591 | -112.45952 | 27907 ft | 401 kts | 225° |
| 2026-04-12 05:03 | 36.50601 | -112.48373 | 27898 ft | 399 kts | 225° |
| 2026-04-12 05:03 | 36.48627 | -112.50793 | 27893 ft | 398 kts | 225° |
| 2026-04-12 05:03 | 36.46660 | -112.53210 | 27892 ft | 398 kts | 225° |
| 2026-04-12 05:03 | 36.44694 | -112.55629 | 27892 ft | 399 kts | 225° |
| 2026-04-12 05:04 | 36.42719 | -112.58048 | 27890 ft | 399 kts | 225° |
| 2026-04-12 05:04 | 36.40765 | -112.60441 | 27886 ft | 400 kts | 225° |
| 2026-04-12 05:04 | 36.38752 | -112.62886 | 27883 ft | 400 kts | 225° |
| 2026-04-12 05:04 | 36.36787 | -112.65275 | 27886 ft | 400 kts | 225° |
| 2026-04-12 05:05 | 36.34783 | -112.67727 | 27910 ft | 399 kts | 225° |
| 2026-04-12 05:05 | 36.32786 | -112.70125 | 27898 ft | 400 kts | 224° |
| 2026-04-12 05:05 | 36.30783 | -112.72528 | 27884 ft | 400 kts | 225° |
| 2026-04-12 05:05 | 36.28794 | -112.74939 | 27852 ft | 400 kts | 225° |
| 2026-04-12 05:06 | 36.26813 | -112.77346 | 27868 ft | 399 kts | 225° |
| 2026-04-12 05:06 | 36.24842 | -112.79759 | 27856 ft | 398 kts | 225° |
| 2026-04-12 05:06 | 36.22869 | -112.82142 | 27875 ft | 397 kts | 224° |
| 2026-04-12 05:06 | 36.20877 | -112.84530 | 27885 ft | 397 kts | 224° |
| 2026-04-12 05:07 | 36.18893 | -112.86906 | 27894 ft | 397 kts | 224° |
| 2026-04-12 05:07 | 36.16908 | -112.89283 | 27904 ft | 398 kts | 225° |
| 2026-04-12 05:07 | 36.14954 | -112.91645 | 27892 ft | 398 kts | 225° |
| 2026-04-12 05:07 | 36.12972 | -112.94048 | 27892 ft | 398 kts | 225° |
| 2026-04-12 05:08 | 36.10993 | -112.96437 | 27880 ft | 398 kts | 225° |
| 2026-04-12 05:08 | 36.09011 | -112.98816 | 27878 ft | 397 kts | 224° |
| 2026-04-12 05:08 | 36.07026 | -113.01193 | 27879 ft | 397 kts | 224° |
| 2026-04-12 05:08 | 36.05039 | -113.03563 | 27879 ft | 397 kts | 225° |
| 2026-04-12 05:09 | 36.03068 | -113.05954 | 27875 ft | 397 kts | 225° |
| 2026-04-12 05:09 | 36.01209 | -113.08199 | 27878 ft | 397 kts | 225° |
| 2026-04-12 05:09 | 36.00812 | -113.08675 | 27878 ft | 397 kts | 225° |
| 2026-04-12 05:09 | 35.98826 | -113.11055 | 27871 ft | 397 kts | 224° |
| 2026-04-12 05:10 | 35.97821 | -113.12257 | 27876 ft | 397 kts | 224° |
| 2026-04-12 05:10 | 35.95836 | -113.14632 | 27872 ft | 397 kts | 224° |
| 2026-04-12 05:10 | 35.95440 | -113.15107 | 27875 ft | 397 kts | 224° |
| 2026-04-12 05:10 | 35.93724 | -113.17159 | 27871 ft | 397 kts | 224° |
| 2026-04-12 05:11 | 35.91742 | -113.19539 | 27880 ft | 397 kts | 225° |
| 2026-04-12 05:11 | 35.89761 | -113.21909 | 27874 ft | 397 kts | 224° |
| 2026-04-12 05:11 | 35.87776 | -113.24280 | 27863 ft | 397 kts | 224° |
| 2026-04-12 05:11 | 35.85785 | -113.26657 | 27869 ft | 398 kts | 224° |
| 2026-04-12 05:12 | 35.83795 | -113.29025 | 27860 ft | 398 kts | 224° |
| 2026-04-12 05:12 | 35.81792 | -113.31392 | 27870 ft | 399 kts | 224° |
| 2026-04-12 05:12 | 35.79796 | -113.33768 | 27880 ft | 399 kts | 224° |
| 2026-04-12 05:12 | 35.77825 | -113.36115 | 27857 ft | 399 kts | 225° |
| 2026-04-12 05:13 | 35.75835 | -113.38486 | 27864 ft | 398 kts | 225° |
| 2026-04-12 05:13 | 35.73842 | -113.40853 | 27860 ft | 399 kts | 224° |
| 2026-04-12 05:13 | 35.71839 | -113.43219 | 27849 ft | 399 kts | 225° |
| 2026-04-12 05:13 | 35.69849 | -113.45585 | 27858 ft | 397 kts | 225° |
| 2026-04-12 05:14 | 35.67866 | -113.47946 | 27857 ft | 396 kts | 225° |
| 2026-04-12 05:14 | 35.65881 | -113.50302 | 27844 ft | 396 kts | 224° |
| 2026-04-12 05:14 | 35.63894 | -113.52655 | 27846 ft | 396 kts | 224° |
| 2026-04-12 05:14 | 35.61904 | -113.54989 | 27845 ft | 396 kts | 224° |
| 2026-04-12 05:15 | 35.60564 | -113.56507 | 27848 ft | 396 kts | 223° |
| 2026-04-12 05:15 | 35.58523 | -113.58783 | 27845 ft | 396 kts | 223° |
| 2026-04-12 05:15 | 35.56471 | -113.61038 | 27845 ft | 396 kts | 222° |
| 2026-04-12 05:15 | 35.54404 | -113.63279 | 27813 ft | 396 kts | 223° |
| 2026-04-12 05:16 | 35.52340 | -113.65532 | 27830 ft | 397 kts | 223° |
| 2026-04-12 05:16 | 35.50271 | -113.67784 | 27857 ft | 398 kts | 222° |
| 2026-04-12 05:16 | 35.48198 | -113.70040 | 27875 ft | 399 kts | 222° |
| 2026-04-12 05:16 | 35.46122 | -113.72301 | 27892 ft | 399 kts | 223° |
| 2026-04-12 05:17 | 35.44044 | -113.74564 | 27910 ft | 399 kts | 223° |
| 2026-04-12 05:17 | 35.41974 | -113.76818 | 27933 ft | 398 kts | 223° |
| 2026-04-12 05:17 | 35.39905 | -113.79061 | 27941 ft | 396 kts | 222° |
| 2026-04-12 05:17 | 35.37837 | -113.81301 | 27955 ft | 395 kts | 223° |
| 2026-04-12 05:18 | 35.35780 | -113.83530 | 27974 ft | 395 kts | 223° |
| 2026-04-12 05:18 | 35.33717 | -113.85765 | 27990 ft | 396 kts | 223° |
| 2026-04-12 05:18 | 35.31683 | -113.87971 | 27998 ft | 396 kts | 223° |
| 2026-04-12 05:18 | 35.29626 | -113.90205 | 27994 ft | 396 kts | 223° |
| 2026-04-12 05:19 | 35.27571 | -113.92444 | 27991 ft | 396 kts | 223° |
| 2026-04-12 05:19 | 35.25513 | -113.94679 | 27990 ft | 396 kts | 223° |
| 2026-04-12 05:19 | 35.23451 | -113.96920 | 27975 ft | 396 kts | 223° |
| 2026-04-12 05:19 | 35.21394 | -113.99170 | 27981 ft | 397 kts | 223° |
| 2026-04-12 05:20 | 35.19320 | -114.01416 | 27984 ft | 398 kts | 223° |
| 2026-04-12 05:20 | 35.17243 | -114.03659 | 27972 ft | 399 kts | 223° |
| 2026-04-12 05:20 | 35.15165 | -114.05901 | 27819 ft | 399 kts | 223° |
| 2026-04-12 05:20 | 35.13089 | -114.08139 | 27829 ft | 398 kts | 223° |
| 2026-04-12 05:21 | 35.11019 | -114.10392 | 27832 ft | 398 kts | 223° |
| 2026-04-12 05:21 | 35.08954 | -114.12632 | 27823 ft | 397 kts | 223° |
| 2026-04-12 05:21 | 35.06877 | -114.14862 | 27816 ft | 397 kts | 223° |
| 2026-04-12 05:21 | 35.04803 | -114.17084 | 27819 ft | 397 kts | 223° |
| 2026-04-12 05:22 | 35.02730 | -114.19308 | 27814 ft | 397 kts | 223° |
| 2026-04-12 05:22 | 35.00671 | -114.21545 | 27811 ft | 397 kts | 223° |
| 2026-04-12 05:22 | 34.98597 | -114.23771 | 27810 ft | 397 kts | 223° |
| 2026-04-12 05:22 | 34.96522 | -114.25991 | 27801 ft | 397 kts | 223° |
| 2026-04-12 05:23 | 34.94448 | -114.28215 | 27783 ft | 397 kts | 223° |
| 2026-04-12 05:23 | 34.92384 | -114.30446 | 27804 ft | 397 kts | 223° |
| 2026-04-12 05:23 | 34.90312 | -114.32683 | 27804 ft | 397 kts | 223° |
| 2026-04-12 05:23 | 34.88239 | -114.34903 | 27816 ft | 398 kts | 223° |
| 2026-04-12 05:24 | 34.86152 | -114.37121 | 27836 ft | 398 kts | 223° |
| 2026-04-12 05:24 | 34.84066 | -114.39336 | 27872 ft | 398 kts | 223° |
| 2026-04-12 05:24 | 34.82003 | -114.41563 | 27873 ft | 395 kts | 223° |
| 2026-04-12 05:24 | 34.79944 | -114.43778 | 27879 ft | 394 kts | 223° |
| 2026-04-12 05:25 | 34.77931 | -114.46037 | 27876 ft | 393 kts | 227° |
| 2026-04-12 05:25 | 34.76185 | -114.48533 | 27880 ft | 392 kts | 234° |
| 2026-04-12 05:25 | 34.74617 | -114.51298 | 27890 ft | 392 kts | 238° |
| 2026-04-12 05:25 | 34.73210 | -114.54094 | 27888 ft | 392 kts | 239° |
| 2026-04-12 05:26 | 34.71829 | -114.56964 | 27890 ft | 393 kts | 240° |
| 2026-04-12 05:26 | 34.70473 | -114.59840 | 27882 ft | 393 kts | 240° |
| 2026-04-12 05:26 | 34.69122 | -114.62738 | 27879 ft | 393 kts | 240° |
| 2026-04-12 05:26 | 34.67775 | -114.65623 | 27887 ft | 392 kts | 240° |
| 2026-04-12 05:27 | 34.66412 | -114.68489 | 27880 ft | 392 kts | 240° |
| 2026-04-12 05:27 | 34.65040 | -114.71354 | 27879 ft | 392 kts | 240° |
| 2026-04-12 05:27 | 34.63663 | -114.74223 | 27870 ft | 392 kts | 240° |
| 2026-04-12 05:27 | 34.62287 | -114.77085 | 27865 ft | 392 kts | 239° |
| 2026-04-12 05:28 | 34.60911 | -114.79942 | 27855 ft | 392 kts | 240° |
| 2026-04-12 05:28 | 34.59533 | -114.82804 | 27826 ft | 392 kts | 240° |
| 2026-04-12 05:28 | 34.58153 | -114.85661 | 27834 ft | 393 kts | 240° |
| 2026-04-12 05:28 | 34.56766 | -114.88525 | 27849 ft | 394 kts | 239° |
| 2026-04-12 05:29 | 34.55380 | -114.91386 | 27843 ft | 394 kts | 240° |
| 2026-04-12 05:29 | 34.53990 | -114.94253 | 27834 ft | 394 kts | 240° |
| 2026-04-12 05:29 | 34.52602 | -114.97115 | 27827 ft | 393 kts | 240° |
| 2026-04-12 05:29 | 34.51210 | -114.99975 | 27824 ft | 393 kts | 239° |
| 2026-04-12 05:30 | 34.49815 | -115.02833 | 27832 ft | 393 kts | 239° |
| 2026-04-12 05:30 | 34.48426 | -115.05687 | 27828 ft | 393 kts | 239° |
| 2026-04-12 05:30 | 34.47028 | -115.08539 | 27837 ft | 393 kts | 239° |
| 2026-04-12 05:30 | 34.45632 | -115.11383 | 27838 ft | 393 kts | 239° |
| 2026-04-12 05:31 | 34.44260 | -115.14198 | 27838 ft | 393 kts | 240° |
| 2026-04-12 05:31 | 34.42873 | -115.17050 | 27844 ft | 393 kts | 239° |
| 2026-04-12 05:31 | 34.41478 | -115.19901 | 27839 ft | 393 kts | 239° |
| 2026-04-12 05:31 | 34.40080 | -115.22747 | 27848 ft | 393 kts | 239° |
| 2026-04-12 05:32 | 34.38687 | -115.25601 | 27849 ft | 393 kts | 239° |
| 2026-04-12 05:32 | 34.37280 | -115.28445 | 27850 ft | 393 kts | 239° |
| 2026-04-12 05:32 | 34.35888 | -115.31292 | 27849 ft | 393 kts | 239° |
| 2026-04-12 05:32 | 34.34495 | -115.34135 | 27847 ft | 392 kts | 239° |
| 2026-04-12 05:33 | 34.33093 | -115.36968 | 27853 ft | 391 kts | 239° |
| 2026-04-12 05:33 | 34.31711 | -115.39790 | 27856 ft | 390 kts | 239° |
| 2026-04-12 05:33 | 34.30316 | -115.42600 | 27851 ft | 390 kts | 239° |
| 2026-04-12 05:33 | 34.28932 | -115.45425 | 27852 ft | 390 kts | 239° |
| 2026-04-12 05:34 | 34.27532 | -115.48238 | 27850 ft | 390 kts | 239° |
| 2026-04-12 05:34 | 34.26148 | -115.51059 | 27854 ft | 390 kts | 239° |
| 2026-04-12 05:34 | 34.24758 | -115.53878 | 27864 ft | 390 kts | 239° |
| 2026-04-12 05:34 | 34.23358 | -115.56690 | 27869 ft | 390 kts | 239° |
| 2026-04-12 05:35 | 34.21713 | -115.59282 | 27880 ft | 391 kts | 223° |
| 2026-04-12 05:35 | 34.19561 | -115.61306 | 27870 ft | 394 kts | 217° |
| 2026-04-12 05:35 | 34.17227 | -115.63071 | 27869 ft | 396 kts | 211° |
| 2026-04-12 05:35 | 34.14740 | -115.64531 | 27893 ft | 398 kts | 207° |
| 2026-04-12 05:36 | 34.12175 | -115.65807 | 27894 ft | 399 kts | 205° |
| 2026-04-12 05:36 | 34.09589 | -115.67008 | 27890 ft | 399 kts | 204° |
| 2026-04-12 05:36 | 34.06988 | -115.68178 | 27895 ft | 398 kts | 204° |
| 2026-04-12 05:36 | 34.04390 | -115.69345 | 27902 ft | 398 kts | 204° |
| 2026-04-12 05:37 | 34.01801 | -115.70528 | 27910 ft | 398 kts | 205° |
| 2026-04-12 05:37 | 33.99243 | -115.71705 | 27904 ft | 398 kts | 205° |
| 2026-04-12 05:37 | 33.96660 | -115.72929 | 27898 ft | 398 kts | 205° |
| 2026-04-12 05:37 | 33.94087 | -115.74149 | 27893 ft | 398 kts | 205° |
| 2026-04-12 05:38 | 33.91509 | -115.75357 | 27863 ft | 398 kts | 205° |
| 2026-04-12 05:38 | 33.88931 | -115.76597 | 27894 ft | 400 kts | 205° |
| 2026-04-12 05:38 | 33.86349 | -115.77856 | 27903 ft | 401 kts | 206° |
| 2026-04-12 05:38 | 33.83766 | -115.79144 | 27904 ft | 402 kts | 206° |
| 2026-04-12 05:39 | 33.81175 | -115.80417 | 27913 ft | 402 kts | 206° |
| 2026-04-12 05:39 | 33.78586 | -115.81684 | 27911 ft | 402 kts | 206° |
| 2026-04-12 05:39 | 33.75995 | -115.82949 | 27911 ft | 402 kts | 205° |
| 2026-04-12 05:39 | 33.73393 | -115.84184 | 27909 ft | 402 kts | 205° |
| 2026-04-12 05:40 | 33.70784 | -115.85408 | 27807 ft | 404 kts | 205° |
| 2026-04-12 05:40 | 33.68218 | -115.86603 | 27530 ft | 388 kts | 205° |
| 2026-04-12 05:40 | 33.65726 | -115.87752 | 27251 ft | 380 kts | 205° |
| 2026-04-12 05:40 | 33.63257 | -115.88890 | 26893 ft | 375 kts | 205° |
| 2026-04-12 05:41 | 33.60848 | -115.90009 | 26539 ft | 366 kts | 205° |
| 2026-04-12 05:41 | 33.58440 | -115.91153 | 26193 ft | 373 kts | 205° |
| 2026-04-12 05:41 | 33.56026 | -115.92282 | 25850 ft | 372 kts | 205° |
| 2026-04-12 05:41 | 33.53622 | -115.93408 | 25517 ft | 370 kts | 206° |
| 2026-04-12 05:42 | 33.51487 | -115.94976 | 25201 ft | 363 kts | 225° |
| 2026-04-12 05:42 | 33.49820 | -115.97220 | 24911 ft | 358 kts | 233° |
| 2026-04-12 05:42 | 33.48325 | -115.99597 | 24597 ft | 357 kts | 235° |
| 2026-04-12 05:43 | 33.45511 | -116.04517 | 23949 ft | 359 kts | 236° |
| 2026-04-12 05:43 | 33.44123 | -116.07002 | 23635 ft | 359 kts | 236° |
| 2026-04-12 05:43 | 33.42721 | -116.09484 | 23279 ft | 359 kts | 236° |
| 2026-04-12 05:43 | 33.41317 | -116.11957 | 22897 ft | 358 kts | 236° |
| 2026-04-12 05:44 | 33.39906 | -116.14396 | 22512 ft | 356 kts | 235° |
| 2026-04-12 05:44 | 33.38490 | -116.16809 | 22080 ft | 353 kts | 235° |
| 2026-04-12 05:44 | 33.37074 | -116.19204 | 21705 ft | 352 kts | 235° |
| 2026-04-12 05:44 | 33.35673 | -116.21592 | 21357 ft | 349 kts | 234° |
| 2026-04-12 05:45 | 33.34115 | -116.23802 | 21027 ft | 349 kts | 223° |
| 2026-04-12 05:45 | 33.32185 | -116.25574 | 20680 ft | 350 kts | 216° |
| 2026-04-12 05:45 | 33.30112 | -116.27099 | 20355 ft | 351 kts | 212° |
| 2026-04-12 05:45 | 33.27969 | -116.28472 | 20009 ft | 347 kts | 210° |
| 2026-04-12 05:46 | 33.25798 | -116.29753 | 19673 ft | 349 kts | 208° |
| 2026-04-12 05:46 | 33.23651 | -116.30984 | 19344 ft | 345 kts | 208° |
| 2026-04-12 05:46 | 33.21485 | -116.32213 | 19011 ft | 345 kts | 208° |
| 2026-04-12 05:46 | 33.19326 | -116.33443 | 18685 ft | 341 kts | 208° |
| 2026-04-12 05:47 | 33.17186 | -116.34672 | 18371 ft | 341 kts | 208° |
| 2026-04-12 05:47 | 33.15059 | -116.35911 | 18006 ft | 338 kts | 209° |
| 2026-04-12 05:47 | 33.12952 | -116.37140 | 17618 ft | 338 kts | 208° |
| 2026-04-12 05:47 | 33.10843 | -116.38365 | 17264 ft | 335 kts | 208° |
| 2026-04-12 05:48 | 33.08781 | -116.39580 | 16867 ft | 326 kts | 209° |
| 2026-04-12 05:48 | 33.06770 | -116.40763 | 16517 ft | 319 kts | 208° |
| 2026-04-12 05:48 | 33.04796 | -116.41908 | 16164 ft | 314 kts | 208° |
| 2026-04-12 05:48 | 33.02841 | -116.43051 | 15734 ft | 313 kts | 208° |
| 2026-04-12 05:49 | 33.00925 | -116.44195 | 15228 ft | 303 kts | 211° |
| 2026-04-12 05:49 | 32.99188 | -116.45642 | 14742 ft | 307 kts | 220° |
| 2026-04-12 05:49 | 32.97545 | -116.47252 | 14288 ft | 304 kts | 221° |
| 2026-04-12 05:49 | 32.95945 | -116.48881 | 13843 ft | 301 kts | 221° |
| 2026-04-12 05:50 | 32.94360 | -116.50509 | 13356 ft | 300 kts | 222° |
| 2026-04-12 05:50 | 32.92789 | -116.52130 | 12916 ft | 297 kts | 222° |
| 2026-04-12 05:50 | 32.91224 | -116.53733 | 12463 ft | 295 kts | 222° |
| 2026-04-12 05:50 | 32.89670 | -116.55315 | 12031 ft | 293 kts | 221° |
| 2026-04-12 05:51 | 32.88139 | -116.56855 | 11641 ft | 291 kts | 222° |
| 2026-04-12 05:51 | 32.86596 | -116.58405 | 11214 ft | 289 kts | 223° |
| 2026-04-12 05:51 | 32.85073 | -116.59954 | 10806 ft | 287 kts | 223° |
| 2026-04-12 05:51 | 32.83555 | -116.61494 | 10379 ft | 286 kts | 223° |
| 2026-04-12 05:52 | 32.82038 | -116.63026 | 9978 ft | 286 kts | 223° |
| 2026-04-12 05:52 | 32.80573 | -116.64512 | 9517 ft | 265 kts | 223° |
| 2026-04-12 05:52 | 32.79212 | -116.65873 | 9048 ft | 249 kts | 223° |
| 2026-04-12 05:52 | 32.77874 | -116.67229 | 8578 ft | 256 kts | 224° |
| 2026-04-12 05:53 | 32.76742 | -116.68861 | 8135 ft | 258 kts | 239° |
| 2026-04-12 05:53 | 32.75843 | -116.70709 | 7681 ft | 258 kts | 241° |
| 2026-04-12 05:53 | 32.74960 | -116.72573 | 7231 ft | 259 kts | 241° |
| 2026-04-12 05:53 | 32.74100 | -116.74451 | 6839 ft | 258 kts | 242° |
| 2026-04-12 05:54 | 32.73250 | -116.76324 | 6437 ft | 258 kts | 242° |
| 2026-04-12 05:54 | 32.72397 | -116.78187 | 6023 ft | 257 kts | 241° |
| 2026-04-12 05:54 | 32.71540 | -116.80061 | 5652 ft | 259 kts | 242° |
| 2026-04-12 05:54 | 32.70680 | -116.81936 | 5267 ft | 258 kts | 244° |
| 2026-04-12 05:55 | 32.69975 | -116.83873 | 5077 ft | 253 kts | 249° |
| 2026-04-12 05:55 | 32.69386 | -116.85805 | 5002 ft | 246 kts | 251° |
| 2026-04-12 05:55 | 32.68826 | -116.87717 | 4751 ft | 240 kts | 251° |
| 2026-04-12 05:55 | 32.68305 | -116.89519 | 4483 ft | 226 kts | 251° |
| 2026-04-12 05:56 | 32.67807 | -116.91277 | 4228 ft | 224 kts | 251° |
| 2026-04-12 05:56 | 32.67316 | -116.93019 | 4053 ft | 218 kts | 256° |
| 2026-04-12 05:56 | 32.67358 | -116.94694 | 3993 ft | 202 kts | 284° |
| 2026-04-12 05:56 | 32.67718 | -116.96239 | 3959 ft | 186 kts | 284° |
| 2026-04-12 05:57 | 32.68055 | -116.97676 | 4011 ft | 177 kts | 285° |
| 2026-04-12 05:57 | 32.68408 | -116.99084 | 4103 ft | 176 kts | 285° |
| 2026-04-12 05:57 | 32.68776 | -117.00503 | 3868 ft | 185 kts | 287° |
| 2026-04-12 05:57 | 32.69171 | -117.01954 | 3481 ft | 181 kts | 287° |
| 2026-04-12 05:58 | 32.69541 | -117.03349 | 3048 ft | 174 kts | 285° |
| 2026-04-12 05:58 | 32.69874 | -117.04663 | 2674 ft | 155 kts | 285° |
| 2026-04-12 05:58 | 32.70165 | -117.05846 | 2382 ft | 145 kts | 284° |
| 2026-04-12 05:58 | 32.70438 | -117.06984 | 2164 ft | 144 kts | 284° |
| 2026-04-12 05:59 | 32.70704 | -117.08110 | 1927 ft | 137 kts | 284° |
| 2026-04-12 05:59 | 32.70960 | -117.09168 | 1691 ft | 129 kts | 284° |
| 2026-04-12 05:59 | 32.71200 | -117.10174 | 1495 ft | 126 kts | 284° |
| 2026-04-12 05:59 | 32.71442 | -117.11170 | 1351 ft | 126 kts | 284° |
| 2026-04-12 06:00 | 32.71685 | -117.12184 | 1212 ft | 129 kts | 285° |
| 2026-04-12 06:00 | 32.71934 | -117.13221 | 1018 ft | 131 kts | 285° |
| 2026-04-12 06:00 | 32.72181 | -117.14256 | 831 ft | 130 kts | 285° |
| 2026-04-12 06:00 | 32.72433 | -117.15286 | 623 ft | 130 kts | 287° |
| 2026-04-12 06:01 | 32.72703 | -117.16315 | 391 ft | 130 kts | 285° |
| 2026-04-12 06:01 | 32.72954 | -117.17330 | 184 ft | 129 kts | 285° |
| 2026-04-12 06:01 | 32.73198 | -117.18329 | 35 ft | 121 kts | 285° |
| 2026-04-12 06:01 | 32.73399 | -117.19149 | 20 ft | 74 kts | 286° |
| 2026-04-12 06:02 | 32.73504 | -117.19573 | 24 ft | 43 kts | 286° |
| 2026-04-12 06:02 | 32.73519 | -117.19807 | 30 ft | 19 kts | 249° |
| 2026-04-12 06:02 | 32.73489 | -117.19917 | 25 ft | 9 kts | 257° |
| 2026-04-12 06:02 | 32.73494 | -117.19972 | 24 ft | 6 kts | 288° |
| 2026-04-12 06:03 | 32.73503 | -117.20003 | 23 ft | 6 kts | 288° |
| 2026-04-12 06:03 | 32.73519 | -117.20061 | 22 ft | 5 kts | 288° |
| 2026-04-12 06:03 | 32.73525 | -117.20084 | 23 ft | 4 kts | 288° |
| 2026-04-12 06:03 | 32.73537 | -117.20129 | 24 ft | 9 kts | 287° |
| 2026-04-12 06:04 | 32.73551 | -117.20217 | 22 ft | 12 kts | 247° |
| 2026-04-12 06:04 | 32.73471 | -117.20252 | 21 ft | 12 kts | 195° |
| 2026-04-12 06:04 | 32.73393 | -117.20277 | 22 ft | 12 kts | 190° |
| 2026-04-12 06:04 | 32.73307 | -117.20277 | 21 ft | 14 kts | 202° |
| 2026-04-12 06:05 | 32.73257 | -117.20325 | 22 ft | 6 kts | 223° |
| 2026-04-12 06:05 | 32.73249 | -117.20333 | 22 ft | 0 kts | 223° |